Futurity Classic de Guadalajara - Entrenamiento

Station: Entrenamiento Vuelo - T Race

Distance: 14629.144 Kilometers    

Release: 13-Oct-2021 08:25

Weather Release:    Arrival:

Wind at Release:     Wind at Arrival:

Temp at Release: °    Temp at Arrival: °

Lofts: 67

Birds: 113

Clocked: 110

Good Luck to Everyone!
Drops Pos Breeder Pigeon Name Color Sex Ent Arrival Speed To Win Elg Pd
1 Miguel Gomez - JA 0651-MX21-REGI AZUL H 1 10:22:38.70 124350.209 00:00:00 Yes
2 José Gomez Loft - CA 51738-MX21-FMC AZUL H 1 10:23:16.60 123686.106 00:00:38 Yes
3 Jacinto Angulo - JA 5101-MX21-UCDJ RODA H 1 10:23:17.30 123673.907 00:00:39 Yes
4 Hermanos Bonet - PU 5311-MX21-REGI RODA H 1 10:23:17.70 123666.937 00:00:39 Yes
5 Rayas Brothers - CA 11291-MX21-UCDJ AZUL H 1 10:23:20.40 123619.911 00:00:42 Yes
6 Hermanos Vilchez Loft - GJ 110845-MX21-FMC MELA H 1 10:23:20.90 123611.207 00:00:42 Yes
7 Mermejita Loft Blue Team - OA 2557-MX21-UCDJ AZUL H 1 10:23:21.20 123605.985 00:00:42 Yes
7 Juan Herrera - CA 56110-MX21-FMC AZUL H 1 10:23:21.20 123605.985 00:00:42 Yes
9 Super Animales & Hnos. Guerrero Maya - EM 7905-MX21-UCDJ BRON H 1 10:23:21.70 123597.283 00:00:43 Yes
9 Palomar Rollo - JA 2783-MX21-REGI ROJO H 1 10:23:21.70 123597.283 00:00:43 Yes
11 Sergio Montejano - CA 8780-MX21-ACCD AZUL H 1 10:23:22.20 123588.581 00:00:43 Yes
12 Hermanos Sandoval Gil - NA 5354-MX21-REGI PINT H 1 10:23:22.30 123586.841 00:00:44 Yes
13 S.R.B.G Loft - CA 6410-MX21-ACCD NEGR H 1 10:23:22.70 123579.881 00:00:44 Yes
14 Palomar Royer - NA 11095-MX21-UCDJ ROJO H 1 10:23:23.10 123572.921 00:00:44 Yes
15 Hermanos Vilchez Loft - GJ 9019-MX21-UCDJ AZUL H 2 10:23:23.40 123567.703 00:00:45 Yes
16 José Gomez Loft - CA 2270-MX21-COM AZUL H 2 10:23:23.80 123560.745 00:00:45 Yes
17 Palomar Rollo - JA 2782-MX21-REGI RODA H 2 10:23:24.10 123555.527 00:00:45 Yes
18 Raul Castañeda - JA 3963-MX21-UCDJ AZUL H 1 10:23:24.70 123545.092 00:00:46 Yes
19 Palomar Topilzin - GJ 11963-MX21-UCDJ RODA H 1 10:23:25.10 123538.137 00:00:46 Yes
20 Paloma Navarrete - JA 11947-MX21-UCDJ RODA H 1 10:23:25.20 123536.398 00:00:47 Yes
20 Super Animales & Hnos. Guerrero Maya - EM 5339-MX21-REGI AZUL H 2 10:23:25.20 123536.398 00:00:47 Yes
20 Sergio Montejano - CA 11062-MX21-UCDJ AZUL H 2 10:23:25.20 123536.398 00:00:47 Yes
23 5 Mayo Loft - WA 7558-MX21-FMC RODA H 1 10:23:25.70 123527.706 00:00:47 Yes
24 Mermejita Loft Blue Team - OA 2570-MX21-UCDJ AZUL H 2 10:23:26.10 123520.753 00:00:47 Yes
25 Palomar Rollo - JA 2781-MX21-REGI PINT H 3 10:23:26.70 123510.324 00:00:48 Yes
26 Mermejita Loft Blue Team - OA 2552-MX21-UCDJ AZUL H 3 10:23:27.20 123501.635 00:00:49 Yes
27 Super Animales & Hnos. Guerrero Maya - EM 7943-MX21-UCDJ AZUL H 3 10:23:27.30 123499.897 00:00:49 Yes
28 7 De Copas - MH 10707-MX21-UCDJ AZUL H 1 10:23:27.50 123496.422 00:00:49 Yes
29 Ralph Aceves Cbc - Loft - CA 5011-MX21-ACCD AZUL H 1 10:23:29.20 123466.891 00:00:50 Yes
30 Sergio Montejano - CA 11064-MX21-UCDJ RODA H 3 10:23:29.40 123463.417 00:00:51 Yes
31 Colombi Team - EM 92536-MX21-FMC AZUL H 1 10:23:30.90 123437.373 00:00:52 Yes
32 Palomar Green Eyes - MX 11098-MX21-UCDJ AZUL H 1 10:23:31.30 123430.430 00:00:53 Yes
33 Fito & Tacambaro Mich. - MH 10583-MX21-ACCD RODA H 1 10:23:32.10 123416.546 00:00:53 Yes
34 Jacinto Angulo - JA 5129-MX21-UCDJ AZUL H 2 10:23:32.50 123409.606 00:00:54 Yes
35 Rene Patiño & Chilangos Loft - NY 10657-MX21-UCDJ RODA H 1 10:23:32.60 123407.870 00:00:54 Yes
36 Palomar Royer - NA 5334-MX21-REGI RODA H 2 10:23:34.90 123367.977 00:00:56 Yes
37 Alonso & Chumi - JA 7911-MX21-UCDJ AZUL H 1 10:23:35.20 123362.776 00:00:56 Yes
37 Raul Castañeda - JA 3961-MX21-UCDJ AZUL H 2 10:23:35.20 123362.776 00:00:56 Yes
39 Super Animales & Hnos. Guerrero Maya - EM 7904-MX21-UCDJ RODA H 4 10:23:36.10 123347.173 00:00:57 Yes
39 Jacinto Angulo - JA 5105-MX21-UCDJ BRON H 3 10:23:36.10 123347.173 00:00:57 Yes
41 El Campanario - JA 8309-MX21-UCDJ RODA H 1 10:23:36.70 123336.774 00:00:58 Yes
42 Super Animales & Hnos. Guerrero Maya - EM 7931-MX21-UCDJ RODA H 5 10:23:36.90 123333.308 00:00:58 Yes
43 Palomar Royer - NA 11096-MX21-UCDJ AZUL H 3 10:23:37.40 123324.643 00:00:59 Yes
44 7 De Copas - MH 2964-MX21-UCDJ AZUL H 2 10:23:38.00 123314.248 00:00:59 Yes
44 Armando Jimenez - CA 11788-MX21-ACCD MELA H 1 10:23:38.00 123314.248 00:00:59 Yes
46 Hermanos Bonet - PU 5313-MX21-REGI BLAN H 2 10:23:38.60 123303.854 00:01:00 Yes
47 Eduardo & Leonel Munguia - JA 9373-MX21-UCDJ AZUL H 1 10:23:38.70 123302.123 00:01:00 Yes
48 Palomar Green Eyes - MX 11100-MX21-UCDJ AZUL H 2 10:23:39.40 123289.999 00:01:01 Yes
49 Sergio Montejano - CA 8763-MX21-ACCD AZUL H 4 10:23:39.50 123288.268 00:01:01 Yes
50 Grupo Los Valdecitas - JA 199734-MX21-FMC RODA H 1 10:23:39.80 123283.073 00:01:01 Yes
51 E.A.B.G Loft - CA 2828-MX21-UCDJ AZUL H 1 10:23:40.30 123274.415 00:01:02 Yes
52 Jesus Tame - PU 11017-MX21-UCDJ AZUL H 1 10:23:41.00 123262.298 00:01:02 Yes
53 David Alfaro - GA 26181-MX21-FMC AZUL H 1 10:23:41.50 123253.643 00:01:03 Yes
54 Tony Reyes - CA 7995-MX21-UCDJ AZUL H 1 10:23:42.10 123243.260 00:01:03 Yes
55 Chetos Millan - JA 3603-MX21-REGI AZUL H 1 10:23:42.40 123238.069 00:01:04 Yes
56 7 De Copas - MH 10712-MX21-UCDJ ROJO H 3 10:23:43.70 123215.579 00:01:05 Yes
57 Alonso & Chumi - JA 7912-MX21-UCDJ AZUL H 2 10:23:44.20 123206.931 00:01:06 Yes
57 Palomar Gascon - JA 4472-MX21-ACCD RODA H 1 10:23:44.20 123206.931 00:01:06 Yes
57 Colombi Team - EM 92550-MX21-FMC AZUL H 2 10:23:44.20 123206.931 00:01:06 Yes
60 Palomar Gascon - JA 11952-MX21-UCDJ CHOC H 2 10:23:45.40 123186.182 00:01:07 Yes
61 Palomar Topilzin - GJ 11964-MX21-UCDJ RODA H 2 10:23:45.50 123184.453 00:01:07 Yes
62 Palomar Anita & Gabino - JA 6765-MX21-UCDJ AZUL H 1 10:23:46.30 123170.625 00:01:08 Yes
63 Familia Bañales - MH 4500-MX21-UCDJ BRON H 1 10:23:47.80 123144.704 00:01:09 Yes
63 Cesar Lucas - MX 12577-MX21-UCDJ RODA H 1 10:23:47.80 123144.704 00:01:09 Yes
65 Rene Patiño & Chilangos Loft - NY 10656-MX21-UCDJ AHU H 2 10:23:48.40 123134.338 00:01:10 Yes
66 Chetos Millan - JA 3604-MX21-REGI RODA H 2 10:23:49.90 123108.433 00:01:11 Yes
66 Palomar Rollo - JA 12603-MX21-UCDJ MELA H 4 10:23:49.90 123108.433 00:01:11 Yes
68 Sergio Montejano - CA 11065-MX21-UCDJ RODA H 5 10:23:51.80 123075.636 00:01:13 Yes
69 Juan Herrera - CA 100640-MX21-ARPU RODA H 2 10:23:52.20 123068.733 00:01:14 Yes
70 Palomar L.A. - CA 3437-MX21-REGI BLAN H 1 10:23:52.90 123056.656 00:01:14 Yes
71 7 De Copas - MH 10710-MX21-UCDJ MELA H 4 10:23:53.10 123053.206 00:01:14 Yes
72 Palomar Topilzin - GJ 11962-MX21-UCDJ AZUL H 3 10:23:53.20 123051.480 00:01:15 Yes
73 Rayas Brothers - CA 5239-MX21-REGI AZUL H 2 10:23:53.60 123044.581 00:01:15 Yes
74 Hermanos Soto - JA 10730-MX21-UCDJ RODA H 1 10:24:00.90 122918.794 00:01:22 Yes
74 7 De Copas - MH 10714-MX21-UCDJ AZUL H 5 10:24:00.90 122918.794 00:01:22 Yes
76 Rayas Brothers - CA 11290-MX21-UCDJ PINT H 3 10:24:04.80 122851.699 00:01:26 Yes
77 Jesus Tame - PU 5315-MX21-REGI AZUL H 2 10:24:05.50 122839.664 00:01:27 Yes
78 Sergio Montejano - CA 11063-MX21-UCDJ RODA H 6 10:24:06.20 122827.631 00:01:28 Yes
79 Super Animales & Hnos. Guerrero Maya - EM 5343-MX21-REGI BRON H 6 10:24:06.90 122815.601 00:01:28 Yes
80 Carlos Morfin - MX 1669-MX21-REGI AZUL H 1 10:24:13.00 122710.865 00:01:34 Yes
81 Rene Patiño & Chilangos Loft - NY 10654-MX21-UCDJ BRON H 3 10:24:13.90 122695.427 00:01:35 Yes
82 5 Mayo Loft - WA 7569-MX21-FMC AZUL H 2 10:24:15.80 122662.850 00:01:37 Yes
83 Colorado Rodriguez 2 - JA 0502-MX21-UCDJ AZUL H 1 10:24:40.00 122249.418 00:02:01 Yes
84 Super Animales & Hnos. Guerrero Maya - EM 5341-MX21-REGI RODA H 7 10:25:22.10 121536.786 00:02:43 Yes
85 Mermejita Loft Blue Team - OA 2566-MX21-UCDJ AZUL H 4 10:27:36.60 119314.741 00:04:58 Yes
86 Super Animales & Hnos. Guerrero Maya - EM 5338-MX21-REGI BRON H 8 10:27:37.00 119308.253 00:04:58 Yes
87 David Alfaro - GA 3764-MX21-ACCD PINT H 2 10:27:43.90 119196.461 00:05:05 Yes
88 Hermanos Vilchez Loft - GJ 9020-MX21-UCDJ CHOC H 3 10:27:44.50 119186.750 00:05:06 Yes
89 7 De Copas - MH 10709-MX21-UCDJ AZUL H 6 10:27:45.80 119165.714 00:05:07 Yes
90 Hermanos Sandoval Gil - NA 7903-MX21-UCDJ AZUL H 2 10:31:23.70 115741.765 00:08:45 Yes
91 José Gomez Loft - CA 2284-MX21-COM AZUL H 3 10:31:40.10 115492.009 00:09:01 Yes
92 Juan Herrera - CA 56114-MX21-FMC BRON H 3 10:31:42.30 115458.588 00:09:04 Yes
93 Armando Jimenez - CA 11789-MX21-ACCD MELA H 2 10:31:42.60 115454.031 00:09:04 Yes
94 Lalito Vega - JA 7993-MX21-UCDJ PINT H 1 10:36:39.40 111116.138 00:14:01 Yes
95 Palomar Anita & Gabino - JA 12569-MX21-UCDJ RODA H 2 10:36:51.70 110943.390 00:14:13 Yes
96 Super Animales & Hnos. Guerrero Maya - EM 5340-MX21-REGI AZUL H 9 10:36:54.50 110904.141 00:14:16 Yes
97 El Campanario - JA 12699-MX21-UCDJ AZUL H 2 10:36:56.70 110873.321 00:14:18 Yes
98 Familia Calderon - GJ 11949-MX21-UCDJ AHU H 1 10:37:03.50 110778.168 00:14:25 Yes
99 Palomar L.A. - CA 11277-MX21-UCDJ PINT H 2 10:37:04.00 110771.179 00:14:25 Yes
100 Sergio Montejano - CA 8764-MX21-ACCD AZUL H 7 10:37:20.90 110535.433 00:14:42 Yes

There are 110 bird records

Note: These Race Results are unofficial and subject to change until verified by the Race Committee and declared final.